Wetterdaten: Juni 2010
Datum Temp. A. Feuchte A. Luftdruck Regen Wind Richtung Taupunkt Windchill Windben
01.06.2010 15,8 C 76 % 1013,9 hPa 0,4 l/m 1,6 km/h N-NO 11,2 C 15,8 C 0,9 km/h
02.06.2010 15,3 C 76 % 1014,6 hPa 0,0 l/m 0,0 km/h O 10,9 C 15,3 C 0,0 km/h
03.06.2010 15,2 C 78 % 1016,1 hPa 0,0 l/m 0,0 km/h S-SO 11,2 C 15,2 C 0,0 km/h
04.06.2010 19,0 C 67 % 1016,9 hPa 0,0 l/m 0,0 km/h N-NO 11,9 C 19,0 C 0,0 km/h
05.06.2010 21,2 C 62 % 1016,1 hPa 0,0 l/m 0,0 km/h O-NO 12,8 C 21,2 C 0,0 km/h
06.06.2010 21,4 C 75 % 1012,7 hPa 0,0 l/m 1,3 km/h W-SW 16,3 C 21,4 C 0,7 km/h
07.06.2010 19,7 C 69 % 1011,5 hPa 0,0 l/m 1,0 km/h W-SW 13,5 C 19,7 C 0,6 km/h
08.06.2010 19,5 C 78 % 1006,9 hPa 1,1 l/m 5,8 km/h SO 15,1 C 19,0 C 3,3 km/h
09.06.2010 22,6 C 69 % 1003,4 hPa 0,0 l/m 1,9 km/h N-NO 16,5 C 22,6 C 1,1 km/h
10.06.2010 24,8 C 70 % 1002,8 hPa 0,0 l/m 1,4 km/h W 18,7 C 24,8 C 0,8 km/h
11.06.2010 21,5 C 76 % 1008,4 hPa 1,8 l/m 0,0 km/h SO 16,5 C 21,5 C 0,0 km/h
12.06.2010 20,1 C 70 % 1011,0 hPa 0,0 l/m 1,5 km/h W 14,3 C 20,1 C 0,8 km/h
13.06.2010 16,3 C 80 % 1012,0 hPa 0,0 l/m 2,0 km/h W 12,8 C 16,2 C 1,1 km/h
14.06.2010 17,8 C 74 % 1012,5 hPa 0,0 l/m 0,8 km/h NO 12,4 C 17,8 C 0,4 km/h
15.06.2010 19,8 C 68 % 1013,3 hPa 0,7 l/m 0,6 km/h N-NO 13,4 C 19,8 C 0,3 km/h
16.06.2010 16,0 C 80 % 1012,0 hPa 8,9 l/m 0,3 km/h N-NO 12,3 C 16,0 C 0,2 km/h
17.06.2010 16,8 C 84 % 1011,7 hPa 0,7 l/m 2,1 km/h W 14,0 C 16,8 C 1,2 km/h
18.06.2010 16,8 C 81 % 1010,1 hPa 8,9 l/m 2,0 km/h W 13,3 C 16,6 C 1,1 km/h
19.06.2010 12,9 C 82 % 1007,2 hPa 5,0 l/m 0,0 km/h NO 9,8 C 12,9 C 0,0 km/h
20.06.2010 13,0 C 70 % 1012,1 hPa 0,0 l/m 0,6 km/h SO 7,3 C 13,0 C 0,3 km/h
21.06.2010 14,4 C 70 % 1017,7 hPa 0,0 l/m 1,8 km/h O-NO 8,8 C 14,3 C 1,0 km/h
22.06.2010 14,1 C 71 % 1020,3 hPa 0,0 l/m 0,0 km/h SO 8,5 C 14,1 C 0,0 km/h
23.06.2010 18,3 C 58 % 1018,4 hPa 0,0 l/m 0,0 km/h NO 8,9 C 18,3 C 0,0 km/h
24.06.2010 19,4 C 62 % 1016,0 hPa 0,0 l/m 8,4 km/h SO 11,3 C 18,7 C 4,7 km/h
25.06.2010 21,6 C 62 % 1013,2 hPa 0,0 l/m 0,0 km/h O-NO 13,2 C 21,6 C 0,0 km/h
26.06.2010 22,8 C 67 % 1013,2 hPa 0,0 l/m 0,6 km/h NO 15,8 C 22,8 C 0,3 km/h
27.06.2010 23,0 C 69 % 1015,3 hPa 0,0 l/m 1,1 km/h SO 16,5 C 23,0 C 0,6 km/h
28.06.2010 23,3 C 63 % 1016,2 hPa 0,0 l/m 4,7 km/h O-NO 15,2 C 23,3 C 2,6 km/h
29.06.2010 24,0 C 62 % 1016,5 hPa 0,0 l/m 1,5 km/h NO 15,5 C 24,0 C 0,8 km/h
30.06.2010 23,8 C 65 % 1017,2 hPa 0,0 l/m 1,9 km/h SO 16,1 C 23,8 C 1,1 km/h
Min-Datum 21.06.10 05.06.10 09.06.10 8 Tage 01.06.10 - 21.06.10 21.06.10 01.06.10
Min-Zeit 04:53 18:53 18:53 - 00:53 - 04:53 04:53 00:53
Minimum 5,1 C 24 % 1000,4 hPa - 0,0 km/h - 3,8 C 5,1 C 0,0 km/h
Max-Datum 05.06.10 14.06.10 22.06.10 16.06.10 24.06.10 - 10.06.10 05.06.10 24.06.10
Max-Zeit 17:53 07:53 23:30 15:53 14:30 - 15:53 17:53 14:30
Maximum 38,3 C 94 % 1021,0 hPa 8,9 l/m 33,7 km/h
SO
- 23,5 C 38,3 C 18,7 km/h
SO
Durchschnitt 19,0 C 71 % 1013,0 hPa #27,4 l/m 1,4 km/h NO 13,1 C 19,0 C 0,8 km/h

Durchschnitt Minimum Temp.11,7 C
Durchschnitt Maximum Temp.29,5 C